Time;durP1;ratioP1;P1;durP2;ratioP2;P2;SDS_P1;SDS_P2;PMS_P1;PMS_P2;Temp;Humidity;BMP_temperature;BMP_pressure;BME280_temperature;BME280_humidity;BME280_pressure;Samples;Min_cycle;Max_cycle;Signal;HPM_P1;HPM_P2
2023/07/28 06:43:58;;;;;;;9.10;6.70;;;;;;;15.41;100.00;99079.10;107231;1277;23901;-39
2023/07/28 06:46:26;;;;;;;8.00;6.30;;;;;;;15.43;100.00;99082.74;110174;1261;22526;-45
2023/07/28 06:48:53;;;;;;;8.70;7.10;;;;;;;15.48;100.00;99086.08;109430;1261;22609;-46
2023/07/28 06:51:20;;;;;;;10.50;7.20;;;;;;;15.50;100.00;99093.53;110324;1262;22433;-41
2023/07/28 06:53:47;;;;;;;9.20;7.10;;;;;;;15.53;100.00;99098.86;111696;1262;22419;-40
2023/07/28 06:56:14;;;;;;;9.00;7.40;;;;;;;15.55;100.00;99097.74;111933;1262;22741;-40
2023/07/28 06:58:41;;;;;;;8.80;7.20;;;;;;;15.57;100.00;99100.63;111967;1262;22384;-39
2023/07/28 07:01:11;;;;;;;11.30;6.90;;;;;;;15.59;100.00;99102.14;111720;1262;22377;-39
2023/07/28 07:03:38;;;;;;;8.10;6.80;;;;;;;15.62;100.00;99100.99;111680;1262;22397;-40
2023/07/28 07:06:06;;;;;;;7.40;6.50;;;;;;;15.64;100.00;99107.26;111455;1262;22527;-46
2023/07/28 07:08:33;;;;;;;11.10;7.70;;;;;;;15.64;100.00;99108.98;111941;1262;23173;-39
2023/07/28 07:11:00;;;;;;;8.20;7.00;;;;;;;15.64;100.00;99113.73;111013;1262;24028;-40
2023/07/28 07:13:27;;;;;;;14.40;6.70;;;;;;;15.63;100.00;99116.05;109737;1262;24226;-42
2023/07/28 07:15:54;;;;;;;10.60;7.80;;;;;;;15.63;100.00;99118.00;110306;1262;25497;-41
2023/07/28 07:18:23;;;;;;;8.50;7.60;;;;;;;15.63;100.00;99124.52;109677;1262;22530;-47
2023/07/28 07:20:50;;;;;;;11.60;7.60;;;;;;;15.63;100.00;99124.33;109343;1262;22661;-42
2023/07/28 07:23:17;;;;;;;10.80;7.30;;;;;;;15.64;100.00;99128.52;111114;1251;23161;-46
2023/07/28 07:25:44;;;;;;;12.00;7.90;;;;;;;15.65;100.00;99128.14;112751;1250;22497;-46
2023/07/28 07:28:11;;;;;;;12.00;6.90;;;;;;;15.67;100.00;99134.58;112421;1251;22518;-39
2023/07/28 07:30:39;;;;;;;8.20;7.20;;;;;;;15.70;100.00;99134.43;112241;1251;22468;-39
2023/07/28 07:33:06;;;;;;;15.80;7.10;;;;;;;15.77;100.00;99139.81;112303;1251;22521;-38
2023/07/28 07:35:37;;;;;;;8.40;7.40;;;;;;;15.83;100.00;99140.95;112788;1250;23180;-45
2023/07/28 07:38:08;;;;;;;9.60;7.80;;;;;;;15.90;100.00;99138.20;112337;1250;22554;-40
2023/07/28 07:40:36;;;;;;;10.80;7.10;;;;;;;15.97;100.00;99145.33;112320;1250;25368;-39
2023/07/28 07:43:03;;;;;;;8.30;6.70;;;;;;;16.02;100.00;99147.42;112005;1250;23358;-40
2023/07/28 07:45:30;;;;;;;8.40;6.60;;;;;;;16.05;100.00;99152.05;112326;1251;24269;-46
2023/07/28 07:48:00;;;;;;;10.90;6.90;;;;;;;16.07;100.00;99156.01;112644;1250;23838;-47
2023/07/28 07:50:27;;;;;;;9.70;7.00;;;;;;;16.11;100.00;99154.42;111212;1250;22541;-45
2023/07/28 07:52:54;;;;;;;8.70;6.90;;;;;;;16.15;100.00;99157.61;110757;1251;22501;-39
2023/07/28 07:55:21;;;;;;;8.10;7.30;;;;;;;16.20;100.00;99161.09;110600;1250;22566;-39
2023/07/28 07:57:48;;;;;;;12.70;7.60;;;;;;;16.24;100.00;99163.42;110416;1250;22527;-39
2023/07/28 08:00:16;;;;;;;8.00;6.40;;;;;;;16.25;100.00;99174.65;110062;1250;22567;-38
2023/07/28 08:02:43;;;;;;;9.60;6.50;;;;;;;16.24;100.00;99172.03;109967;1250;24188;-39
2023/07/28 08:05:13;;;;;;;10.50;6.10;;;;;;;16.23;100.00;99169.77;110722;1251;22511;-39
2023/07/28 08:07:40;;;;;;;7.50;6.70;;;;;;;16.23;100.00;99173.27;110118;1250;22504;-39
2023/07/28 08:10:08;;;;;;;16.40;6.80;;;;;;;16.24;100.00;99176.44;112299;1250;22517;-41
2023/07/28 08:12:35;;;;;;;11.30;6.80;;;;;;;16.27;100.00;99177.17;112620;1250;23197;-38
2023/07/28 08:15:02;;;;;;;14.90;7.50;;;;;;;16.34;100.00;99181.29;112734;1251;22220;-46
2023/07/28 08:17:29;;;;;;;7.30;6.40;;;;;;;16.42;100.00;99179.17;111173;1251;24182;-38
2023/07/28 08:19:56;;;;;;;8.40;6.90;;;;;;;16.51;100.00;99185.50;111222;1250;22526;-46
2023/07/28 08:22:23;;;;;;;8.80;6.20;;;;;;;16.60;100.00;99187.80;110674;1250;22497;-46
2023/07/28 08:24:50;;;;;;;14.30;6.70;;;;;;;16.66;100.00;99189.27;112784;1250;22417;-38
2023/07/28 08:27:24;;;;;;;8.30;6.80;;;;;;;16.72;100.00;99191.87;112005;1250;22615;-44
2023/07/28 08:29:50;;;;;;;7.90;6.50;;;;;;;16.78;100.00;99192.66;110861;1250;22496;-39
2023/07/28 08:32:17;;;;;;;7.90;6.80;;;;;;;16.83;100.00;99191.92;109844;1250;22508;-39
2023/07/28 08:34:44;;;;;;;11.90;6.90;;;;;;;16.87;100.00;99196.88;110625;1250;22515;-40
2023/07/28 08:37:12;;;;;;;14.00;7.20;;;;;;;16.87;100.00;99201.97;110621;1250;22561;-45
2023/07/28 08:39:40;;;;;;;8.30;6.70;;;;;;;16.86;100.00;99207.48;111293;1250;26474;-39
2023/07/28 08:42:07;;;;;;;12.80;6.40;;;;;;;16.83;100.00;99211.32;110398;1250;25312;-38
2023/07/28 08:44:34;;;;;;;11.30;6.80;;;;;;;16.82;100.00;99210.83;111823;1250;24224;-45
2023/07/28 08:47:04;;;;;;;13.20;7.20;;;;;;;16.84;100.00;99223.44;110266;1250;25368;-38
2023/07/28 08:49:32;;;;;;;7.60;6.80;;;;;;;16.85;100.00;99216.14;110972;1250;22287;-46
2023/07/28 08:52:00;;;;;;;7.60;6.70;;;;;;;16.90;100.00;99210.84;112743;1250;22371;-44
2023/07/28 08:54:27;;;;;;;9.10;6.30;;;;;;;16.98;100.00;99214.37;110668;1248;25405;-38
2023/07/28 08:56:54;;;;;;;10.80;6.40;;;;;;;17.08;100.00;99217.44;112009;1250;22492;-39
2023/07/28 08:59:22;;;;;;;10.60;6.40;;;;;;;17.17;100.00;99212.28;112155;1250;22412;-46
2023/07/28 09:01:50;;;;;;;8.10;6.40;;;;;;;17.24;100.00;99214.08;112110;1248;22512;-39
2023/07/28 09:04:17;;;;;;;6.80;5.90;;;;;;;17.30;100.00;99224.41;110532;1250;25342;-38
2023/07/28 09:06:45;;;;;;;8.80;6.40;;;;;;;17.34;100.00;99228.45;112750;1250;23076;-39
2023/07/28 09:09:13;;;;;;;8.00;6.10;;;;;;;17.39;100.00;99228.74;112840;1250;22112;-45
2023/07/28 09:11:45;;;;;;;11.50;5.90;;;;;;;17.48;100.00;99226.77;112584;1250;23072;-41
2023/07/28 09:14:13;;;;;;;6.70;6.00;;;;;;;17.62;100.00;99226.34;112442;1250;22391;-38
2023/07/28 09:16:40;;;;;;;8.80;6.10;;;;;;;17.78;100.00;99222.77;110028;1250;22514;-46
2023/07/28 09:19:08;;;;;;;7.00;5.40;;;;;;;17.90;100.00;99227.16;110072;1250;22527;-45
2023/07/28 09:21:35;;;;;;;13.40;5.50;;;;;;;18.00;100.00;99232.34;111054;1250;22520;-38
2023/07/28 09:24:10;;;;;;;5.50;4.90;;;;;;;18.10;100.00;99225.89;112774;1250;22262;-42
2023/07/28 09:26:45;;;;;;;5.70;4.90;;;;;;;18.24;100.00;99225.91;111912;1250;23313;-44
2023/07/28 09:29:15;;;;;;;6.80;5.00;;;;;;;18.41;99.75;99223.13;112172;1250;22407;-46
2023/07/28 09:31:47;;;;;;;7.80;4.70;;;;;;;18.59;98.59;99220.13;110591;1250;25319;-45
2023/07/28 09:34:23;;;;;;;5.50;3.90;;;;;;;18.80;98.03;99222.46;110433;1250;22494;-39
2023/07/28 09:36:50;;;;;;;6.00;3.80;;;;;;;18.97;95.79;99229.17;111561;1250;22412;-45
2023/07/28 09:39:20;;;;;;;5.30;3.30;;;;;;;19.00;94.32;99230.77;112650;1250;22534;-46
2023/07/28 09:41:47;;;;;;;4.90;2.60;;;;;;;18.99;93.47;99224.11;110718;1250;22529;-39
2023/07/28 09:44:15;;;;;;;4.40;3.10;;;;;;;19.00;93.69;99220.75;111058;1250;23837;-39
2023/07/28 09:46:55;;;;;;;3.90;3.00;;;;;;;19.06;92.57;99218.45;111878;1250;22415;-41
2023/07/28 09:49:36;;;;;;;4.60;3.20;;;;;;;19.17;93.20;99216.30;112768;1250;22395;-40
2023/07/28 09:52:05;;;;;;;4.80;2.90;;;;;;;19.31;91.63;99220.02;110471;1243;25386;-39
2023/07/28 09:54:34;;;;;;;3.10;2.80;;;;;;;19.37;90.83;99219.46;110743;1250;22448;-38
2023/07/28 09:57:01;;;;;;;2.70;2.50;;;;;;;19.43;89.76;99225.40;112694;1250;22958;-38
2023/07/28 09:59:32;;;;;;;3.80;3.40;;;;;;;19.45;89.90;99217.65;111217;1250;22499;-38
2023/07/28 10:01:59;;;;;;;3.90;3.50;;;;;;;19.49;90.09;99214.83;109893;1250;22527;-41
2023/07/28 10:04:27;;;;;;;6.10;3.40;;;;;;;19.49;88.76;99214.80;111260;1250;22703;-39
2023/07/28 10:06:56;;;;;;;3.40;2.90;;;;;;;19.44;88.79;99213.46;110288;1250;23322;-45
2023/07/28 10:09:24;;;;;;;4.10;2.90;;;;;;;19.38;89.33;99218.36;110411;1250;23306;-45
2023/07/28 10:11:52;;;;;;;4.30;2.60;;;;;;;19.35;89.24;99217.83;112739;1250;22354;-41
2023/07/28 10:14:30;;;;;;;3.10;2.80;;;;;;;19.32;88.56;99222.76;112818;1250;22908;-39
2023/07/28 10:16:58;;;;;;;5.10;3.00;;;;;;;19.31;88.78;99215.23;112807;1250;23028;-40
2023/07/28 10:19:26;;;;;;;2.90;2.70;;;;;;;19.36;90.08;99215.64;112593;1250;25414;-38
2023/07/28 10:22:00;;;;;;;3.40;3.00;;;;;;;19.45;89.24;99228.63;112248;1250;22517;-39
2023/07/28 10:24:51;;;;;;;3.30;3.00;;;;;;;19.47;87.92;99228.89;111516;1250;22743;-46
2023/07/28 10:27:33;;;;;;;4.50;2.90;;;;;;;19.41;88.26;99232.89;110492;1250;22510;-39
2023/07/28 10:30:04;;;;;;;5.20;3.00;;;;;;;19.41;87.30;99235.36;110446;1250;24171;-45
2023/07/28 10:32:40;;;;;;;3.60;3.20;;;;;;;19.47;87.24;99227.27;111298;1250;23873;-46
2023/07/28 10:35:13;;;;;;;3.70;3.30;;;;;;;19.61;86.21;99241.05;110796;1250;23098;-45
2023/07/28 10:37:44;;;;;;;4.70;3.40;;;;;;;19.78;84.39;99239.08;110857;1250;22982;-37
2023/07/28 10:40:34;;;;;;;4.00;3.30;;;;;;;19.90;84.66;99242.33;111313;1250;23153;-45
2023/07/28 10:43:02;;;;;;;3.40;3.20;;;;;;;20.01;83.67;99240.27;112724;1250;22410;-39
2023/07/28 10:45:30;;;;;;;4.00;3.70;;;;;;;20.08;82.87;99247.48;112823;1250;22344;-40
2023/07/28 10:47:59;;;;;;;3.50;3.20;;;;;;;20.17;82.29;99245.04;112808;1250;22227;-39
2023/07/28 10:50:30;;;;;;;5.80;3.20;;;;;;;20.24;82.15;99245.22;112771;1250;22358;-39
2023/07/28 10:52:57;;;;;;;3.40;3.10;;;;;;;20.34;82.77;99248.02;112816;1250;22353;-45
2023/07/28 10:55:25;;;;;;;3.90;2.60;;;;;;;20.43;81.53;99246.21;112843;1250;22351;-45
2023/07/28 10:57:53;;;;;;;5.80;3.40;;;;;;;20.51;80.59;99252.05;112410;1250;22420;-39
2023/07/28 11:00:21;;;;;;;3.90;2.80;;;;;;;20.58;80.81;99242.75;109994;1250;22514;-38
2023/07/28 11:02:52;;;;;;;3.30;3.00;;;;;;;20.66;79.91;99246.54;111634;1250;22430;-39
2023/07/28 11:05:24;;;;;;;4.70;2.80;;;;;;;20.67;79.73;99249.17;112353;1250;24239;-40
2023/07/28 11:07:53;;;;;;;3.00;2.70;;;;;;;20.62;78.57;99255.84;111895;1250;22289;-39
2023/07/28 11:10:21;;;;;;;4.40;3.00;;;;;;;20.58;78.78;99252.85;112248;1250;23257;-46
2023/07/28 11:12:49;;;;;;;7.00;2.60;;;;;;;20.58;79.85;99259.75;110209;1250;24218;-38
2023/07/28 11:15:16;;;;;;;3.50;3.00;;;;;;;20.62;79.90;99259.17;110875;1250;22511;-39
2023/07/28 11:17:48;;;;;;;3.20;2.70;;;;;;;20.67;79.53;99254.64;111684;1250;22528;-46
2023/07/28 11:20:16;;;;;;;7.00;2.50;;;;;;;20.70;77.75;99257.15;110500;1250;22609;-39
2023/07/28 11:22:44;;;;;;;4.10;2.40;;;;;;;20.71;77.40;99259.55;110418;1250;24248;-45
2023/07/28 11:25:12;;;;;;;3.20;2.20;;;;;;;20.78;77.53;99264.84;110550;1250;22499;-38
2023/07/28 11:27:39;;;;;;;2.90;2.20;;;;;;;20.89;77.35;99255.10;110236;1250;23142;-39
2023/07/28 11:30:07;;;;;;;3.00;2.10;;;;;;;21.05;77.71;99258.79;110094;1250;24208;-39
2023/07/28 11:32:34;;;;;;;3.50;2.60;;;;;;;21.15;77.15;99261.36;110523;1250;23224;-37
2023/07/28 11:35:06;;;;;;;5.80;2.50;;;;;;;21.17;75.95;99263.23;110055;1250;24343;-39
2023/07/28 11:37:33;;;;;;;3.00;2.50;;;;;;;21.16;76.05;99265.23;110599;1251;22523;-45
2023/07/28 11:40:06;;;;;;;3.90;2.20;;;;;;;21.23;75.53;99274.23;110714;1250;22500;-46
2023/07/28 11:42:34;;;;;;;4.80;2.60;;;;;;;21.29;74.43;99276.03;110181;1250;22503;-39
2023/07/28 11:45:03;;;;;;;3.00;2.00;;;;;;;21.31;74.02;99281.05;110206;1250;22490;-45
2023/07/28 11:47:34;;;;;;;2.40;2.10;;;;;;;21.33;73.24;99285.85;110170;1250;25333;-45
2023/07/28 11:50:02;;;;;;;3.80;2.40;;;;;;;21.36;72.71;99288.91;109756;1250;25327;-38
2023/07/28 11:52:34;;;;;;;4.70;2.00;;;;;;;21.42;72.65;99292.60;110093;1250;22551;-38
2023/07/28 11:55:02;;;;;;;3.40;2.00;;;;;;;21.45;70.82;99297.23;110005;1250;24009;-38
2023/07/28 11:57:32;;;;;;;5.10;1.80;;;;;;;21.41;71.23;99300.65;109841;1250;22524;-39
2023/07/28 11:59:59;;;;;;;3.30;1.80;;;;;;;21.40;71.70;99300.71;110316;1250;24183;-46
2023/07/28 12:02:27;;;;;;;3.40;1.90;;;;;;;21.44;72.28;99294.81;110562;1250;23696;-38
2023/07/28 12:04:56;;;;;;;3.10;2.10;;;;;;;21.48;71.93;99297.91;110338;1250;25315;-38
2023/07/28 12:07:33;;;;;;;1.90;1.70;;;;;;;21.47;72.27;99300.98;110148;1250;24175;-45
2023/07/28 12:10:06;;;;;;;2.60;1.60;;;;;;;21.42;72.47;99302.55;110405;1250;22507;-39
2023/07/28 12:12:43;;;;;;;5.50;2.10;;;;;;;21.35;72.39;99307.97;110443;1250;22509;-46
2023/07/28 12:15:30;;;;;;;6.90;1.90;;;;;;;21.26;72.03;99310.04;109969;1250;24192;-39
2023/07/28 12:18:04;;;;;;;2.20;1.80;;;;;;;21.19;72.58;99312.36;110546;1250;25370;-39
2023/07/28 12:20:38;;;;;;;2.90;1.60;;;;;;;21.18;72.91;99313.84;110090;1250;23194;-45
2023/07/28 12:23:06;;;;;;;3.50;2.20;;;;;;;21.18;71.41;99308.02;111404;1241;24181;-39
2023/07/28 12:25:37;;;;;;;3.90;1.90;;;;;;;21.22;72.13;99310.46;110502;1250;25349;-38
2023/07/28 12:28:04;;;;;;;2.90;2.00;;;;;;;21.25;71.32;99313.98;110096;1250;25392;-38
2023/07/28 12:30:32;;;;;;;2.00;1.90;;;;;;;21.25;70.01;99313.44;110043;1250;22531;-39
2023/07/28 12:33:00;;;;;;;10.50;1.50;;;;;;;21.25;70.30;99309.71;110941;1250;22417;-38
2023/07/28 12:35:36;;;;;;;2.30;1.80;;;;;;;21.25;69.97;99316.63;112880;1250;22365;-46
2023/07/28 12:38:06;;;;;;;5.30;2.00;;;;;;;21.25;70.28;99318.75;112862;1250;22372;-46
2023/07/28 12:40:36;;;;;;;4.40;1.60;;;;;;;21.29;70.85;99318.21;112103;1250;22431;-39
2023/07/28 12:43:06;;;;;;;5.30;1.80;;;;;;;21.36;70.53;99318.13;112749;1250;23148;-46
2023/07/28 12:45:34;;;;;;;5.10;1.50;;;;;;;21.42;70.02;99322.55;110420;1250;22523;-46
2023/07/28 12:48:04;;;;;;;1.70;1.30;;;;;;;21.46;69.81;99325.55;110302;1250;22511;-45
2023/07/28 12:50:31;;;;;;;2.10;1.60;;;;;;;21.50;70.35;99324.77;110860;1250;22492;-40
2023/07/28 12:53:08;;;;;;;4.90;1.60;;;;;;;21.55;70.47;99328.00;110261;1250;25427;-38
2023/07/28 12:55:44;;;;;;;3.90;1.70;;;;;;;21.65;69.95;99323.36;110299;1250;22500;-38
2023/07/28 12:58:14;;;;;;;5.90;1.60;;;;;;;21.79;69.24;99322.81;110122;1250;22540;-38
2023/07/28 13:00:44;;;;;;;5.30;1.40;;;;;;;21.87;68.56;99326.80;110332;1250;25340;-39
2023/07/28 13:03:14;;;;;;;2.50;1.40;;;;;;;21.90;68.85;99326.38;110192;1250;22586;-38
2023/07/28 13:05:43;;;;;;;2.90;1.20;;;;;;;21.93;68.78;99325.16;109868;1250;25330;-39
2023/07/28 13:08:10;;;;;;;4.20;1.20;;;;;;;21.93;68.07;99327.61;110143;1250;25392;-39
2023/07/28 13:10:37;;;;;;;2.60;1.40;;;;;;;21.89;67.51;99332.69;110271;1250;25325;-45
2023/07/28 13:13:07;;;;;;;5.60;1.50;;;;;;;21.82;67.01;99334.32;110655;1250;25302;-46
2023/07/28 13:15:40;;;;;;;;;;;;;;;21.77;67.44;99327.19;109958;1250;22531;-38
2023/07/28 13:18:07;;;;;;;3.70;1.20;;;;;;;21.76;68.05;99329.95;110095;1250;22526;-44
2023/07/28 13:20:34;;;;;;;4.40;1.50;;;;;;;21.79;68.88;99328.52;110726;1250;22415;-39
2023/07/28 13:23:02;;;;;;;4.30;1.50;;;;;;;21.84;68.88;99332.25;110884;1250;22508;-45
2023/07/28 13:25:29;;;;;;;4.60;1.20;;;;;;;21.87;67.99;99333.34;110196;1250;22508;-39
